渥太华麦克唐纳-卡蒂埃国际机场

METAR CYOW

罗盘
风向 的 风向 240° 渥太华麦克唐纳-卡蒂埃国际机场 4/22
风: 6 kt, 2 beaufort

4 kt

3 kt
改变
0 1.000 2.000 3.000 4.000 5.000
SCT 700 ft
BKN 1.100 ft
BKN 2.600 ft
METAR CYOW 170800Z 24006KT 10SM -DZ SCT007 BKN011 BKN026 10/10 A2954 RMK SF3SC2SC2 SLP006 DENSITY ALT 400FT

METAR 渥太华麦克唐纳-卡蒂埃国际机场

渥太华麦克唐纳-卡蒂埃国际机场是Ottawa,加拿大中的大型机场。 该机场有3条跑道: 4/22, 7/25 和 14/32.

这份报告是针对2022年5月17日 04:00, 当地时间在渥太华麦克唐纳-卡蒂埃国际机场进行的。

机场观察

风向为240°,速度为6 kt。

可见度为16 km。

有疏云,零星散落的云朵在700 ft的高度, 碎云在1.100 ft的高度 和 碎云在2.600 ft的高度。 破损或更高的上限为1.100 ft。

当前天气为光 细雨。 温度为10 °C,阵风为7 °C。 露点为10 °C,相对湿度为100%。 海平面上的气压为1000 hPa (QNH)。

白天

今天,太阳从05:29升起,在20:28降落。 这适用于渥太华麦克唐纳-卡蒂埃国际机场,世界夏令时可能有所不同。 当地时间与世界标准时间之间的时差为-4 小时。 夏令时目前正在进行中。

公司介绍

在这个机场,你可以找到飞行学校。 本场上唯一已知的公司是Ottawa Flying Club。

体会

到Vliegles.nl去找飞行课程,跳伞和其他飞行体验。 浏览页面,了解渥太华麦克唐纳-卡蒂埃国际机场附近所有可用的活动。 你也可以使用搜索功能来寻找你所在地附近的特定飞行课程、跳伞或其他飞行体验。

您会帮助我们保持Metar-Taf.com正常运行吗?
您的贡献有助于网站的进一步开发并支付费用。

没有更多广告

您是捐款5美元还是更多?然后,我们将永远不会再向您展示广告,这是我们永恒的感谢!
捐赠前先登录

跑道

Id 标题 侧风 逆风
4/22 026°-206° 3 kt 4 kt
7/25 057°-237° 5 kt
14/32 126°-306° 5 kt 2 kt

逆风成分最大的方向会被突出显示,并用于横风计算。 这并不一定意味着这个方向在使用。

乌云

700 ft SCT 疏云,零星散落的云朵
1.100 ft BKN 碎云
2.600 ft BKN 碎云

温度 & 天气

天气 光 细雨
温度 10 °C
露点 10 °C
相对湿度 100%
风寒 7 °C
Kp-index 2  

评论

SLP006海平面压力为1000,6 hPa (29,55 inHg)
SF3SC2SC2 DENSITY ALT 400FT

公司介绍

新增公司

下载我们的应用程序

在您的手机和平板电脑上轻松访问所有航空天气。
有许多网站上没有的功能,如离线支持和个人机场列表。

Studio Eveline

Benalmádena
España